Time;durP1;ratioP1;P1;durP2;ratioP2;P2;SDS_P1;SDS_P2;PMS_P1;PMS_P2;Temp;Humidity;BMP_temperature;BMP_pressure;BME280_temperature;BME280_humidity;BME280_pressure;Samples;Min_cycle;Max_cycle;Signal;HPM_P1;HPM_P2
2022/08/03 00:00:38;;;;;;;9.70;7.90;;;;;;;;;;105650;1303;25266;-28
2022/08/03 00:03:06;;;;;;;7.90;6.80;;;;;;;;;;105612;1303;22495;-28
2022/08/03 00:05:35;;;;;;;8.60;6.90;;;;;;;;;;105674;1303;25235;-24
2022/08/03 00:08:04;;;;;;;9.50;8.10;;;;;;;;;;105633;1296;25338;-29
2022/08/03 00:10:33;;;;;;;9.40;8.40;;;;;;;;;;105604;1303;25222;-26
2022/08/03 00:13:02;;;;;;;7.40;6.70;;;;;;;;;;105600;1299;25344;-24
2022/08/03 00:15:31;;;;;;;9.00;8.20;;;;;;;;;;105526;1303;25226;-25
2022/08/03 00:18:00;;;;;;;9.80;8.80;;;;;;;;;;105587;1296;25264;-30
2022/08/03 00:20:28;;;;;;;9.30;8.00;;;;;;;;;;105610;1303;25277;-27
2022/08/03 00:22:57;;;;;;;9.10;8.30;;;;;;;;;;105602;1295;25353;-24
2022/08/03 00:25:26;;;;;;;9.90;9.00;;;;;;;;;;105492;1303;22557;-24
2022/08/03 00:27:55;;;;;;;9.90;8.70;;;;;;;;;;105619;1295;25277;-30
2022/08/03 00:30:24;;;;;;;9.70;8.50;;;;;;;;;;105591;1303;25347;-28
2022/08/03 00:32:53;;;;;;;12.70;11.20;;;;;;;;;;105606;1303;25261;-24
2022/08/03 00:35:21;;;;;;;11.10;9.80;;;;;;;;;;105622;1303;25303;-24
2022/08/03 00:37:50;;;;;;;14.80;10.00;;;;;;;;;;105586;1303;25245;-24
2022/08/03 00:40:19;;;;;;;11.00;9.30;;;;;;;;;;105577;1296;22517;-25
2022/08/03 00:42:49;;;;;;;11.70;10.60;;;;;;;;;;105597;1303;22517;-28
2022/08/03 00:45:18;;;;;;;10.90;9.80;;;;;;;;;;105592;1303;25258;-24
2022/08/03 00:47:47;;;;;;;11.10;10.10;;;;;;;;;;105484;1303;22536;-26
2022/08/03 00:50:16;;;;;;;11.40;10.30;;;;;;;;;;105518;1303;25279;-26
2022/08/03 00:52:45;;;;;;;13.20;11.80;;;;;;;;;;105533;1303;22538;-24
2022/08/03 00:55:14;;;;;;;16.10;12.00;;;;;;;;;;105520;1303;22520;-25
2022/08/03 00:57:43;;;;;;;12.00;9.80;;;;;;;;;;105543;1303;24574;-30
2022/08/03 01:00:13;;;;;;;12.50;9.90;;;;;;;;;;105627;1296;25191;-28
2022/08/03 01:02:42;;;;;;;11.00;8.90;;;;;;;;;;105606;1303;25260;-28
2022/08/03 01:05:11;;;;;;;8.90;8.00;;;;;;;;;;105556;1296;25203;-28
2022/08/03 01:07:43;;;;;;;13.70;10.00;;;;;;;;;;105506;1303;25193;-29
2022/08/03 01:10:16;;;;;;;13.00;10.00;;;;;;;;;;105542;1298;22528;-25
2022/08/03 01:12:46;;;;;;;10.70;9.70;;;;;;;;;;105576;1299;25181;-29
2022/08/03 01:15:19;;;;;;;12.60;10.40;;;;;;;;;;105535;1299;25141;-29
2022/08/03 01:17:49;;;;;;;16.20;10.00;;;;;;;;;;105574;1296;25235;-24
2022/08/03 01:20:18;;;;;;;9.50;8.60;;;;;;;;;;105538;1296;24791;-28
2022/08/03 01:22:48;;;;;;;10.20;9.20;;;;;;;;;;105586;1303;25200;-29
2022/08/03 01:25:21;;;;;;;12.40;11.20;;;;;;;;;;105541;1296;22511;-24
2022/08/03 01:27:53;;;;;;;13.10;11.70;;;;;;;;;;105607;1299;25181;-28
2022/08/03 01:30:23;;;;;;;15.50;10.20;;;;;;;;;;105546;1299;22513;-24
2022/08/03 01:32:56;;;;;;;17.00;11.70;;;;;;;;;;105563;1298;22538;-24
2022/08/03 01:35:26;;;;;;;13.30;9.10;;;;;;;;;;105576;1303;25226;-28
2022/08/03 01:37:56;;;;;;;12.70;11.60;;;;;;;;;;105569;1299;22533;-28
2022/08/03 01:40:26;;;;;;;16.80;11.80;;;;;;;;;;105590;1298;22542;-29
2022/08/03 01:42:55;;;;;;;13.10;11.50;;;;;;;;;;105591;1303;22513;-24
2022/08/03 01:45:24;;;;;;;14.10;11.60;;;;;;;;;;105508;1303;25232;-25
2022/08/03 01:47:53;;;;;;;16.50;13.60;;;;;;;;;;105589;1303;25223;-25
2022/08/03 01:50:22;;;;;;;13.60;12.40;;;;;;;;;;105538;1303;22513;-25
2022/08/03 01:52:51;;;;;;;16.00;13.00;;;;;;;;;;105601;1303;25236;-24
2022/08/03 01:55:20;;;;;;;10.90;9.80;;;;;;;;;;105577;1303;25132;-24
2022/08/03 01:57:49;;;;;;;10.20;9.20;;;;;;;;;;105574;1299;25283;-28
2022/08/03 02:00:18;;;;;;;12.20;11.00;;;;;;;;;;105524;1303;25226;-24
2022/08/03 02:02:48;;;;;;;22.20;11.30;;;;;;;;;;105619;1299;22521;-29
2022/08/03 02:05:17;;;;;;;11.70;10.50;;;;;;;;;;105589;1303;24861;-29
2022/08/03 02:07:46;;;;;;;11.80;10.70;;;;;;;;;;105610;1303;25164;-25
2022/08/03 02:10:15;;;;;;;12.70;11.40;;;;;;;;;;105528;1304;25337;-25
2022/08/03 02:12:44;;;;;;;13.60;12.00;;;;;;;;;;105535;1303;22541;-28
2022/08/03 02:15:14;;;;;;;14.40;12.10;;;;;;;;;;105474;1296;22613;-24
2022/08/03 02:17:43;;;;;;;20.30;14.10;;;;;;;;;;105599;1303;25234;-28
2022/08/03 02:20:12;;;;;;;13.20;11.70;;;;;;;;;;105538;1296;22561;-24
2022/08/03 02:22:41;;;;;;;14.90;11.80;;;;;;;;;;105501;1303;25249;-24
2022/08/03 02:25:11;;;;;;;17.60;13.20;;;;;;;;;;105572;1298;25232;-24
2022/08/03 02:27:42;;;;;;;14.20;11.90;;;;;;;;;;105548;1303;25196;-25
2022/08/03 02:30:12;;;;;;;14.20;12.90;;;;;;;;;;105577;1299;22514;-28
2022/08/03 02:32:42;;;;;;;12.90;11.10;;;;;;;;;;105555;1299;24719;-25
2022/08/03 02:35:12;;;;;;;17.30;13.00;;;;;;;;;;105599;1303;22528;-28
2022/08/03 02:37:42;;;;;;;12.80;10.90;;;;;;;;;;105609;1303;25346;-30
2022/08/03 02:40:11;;;;;;;17.70;13.00;;;;;;;;;;105512;1303;22507;-26
2022/08/03 02:42:40;;;;;;;20.20;11.50;;;;;;;;;;105647;1303;25177;-31
2022/08/03 02:45:12;;;;;;;17.50;13.00;;;;;;;;;;105653;1296;25194;-30
2022/08/03 02:47:41;;;;;;;15.70;14.20;;;;;;;;;;105529;1302;25441;-24
2022/08/03 02:50:11;;;;;;;18.60;14.20;;;;;;;;;;105365;1302;22736;-24
2022/08/03 02:52:40;;;;;;;16.20;14.20;;;;;;;;;;105526;1303;24650;-30
2022/08/03 02:55:09;;;;;;;16.90;12.40;;;;;;;;;;105580;1296;25340;-30
2022/08/03 02:57:38;;;;;;;14.50;12.20;;;;;;;;;;105571;1303;22531;-28
2022/08/03 03:00:07;;;;;;;15.50;13.50;;;;;;;;;;105555;1303;22508;-30
2022/08/03 03:02:36;;;;;;;16.30;14.50;;;;;;;;;;105586;1302;25192;-31
2022/08/03 03:05:05;;;;;;;17.50;14.50;;;;;;;;;;105520;1299;25267;-28
2022/08/03 03:07:34;;;;;;;15.20;12.60;;;;;;;;;;105542;1304;22532;-31
2022/08/03 03:10:03;;;;;;;15.10;13.60;;;;;;;;;;105577;1303;25193;-28
2022/08/03 03:12:32;;;;;;;13.10;11.80;;;;;;;;;;105617;1303;25238;-28
2022/08/03 03:15:01;;;;;;;18.20;12.60;;;;;;;;;;105564;1296;22523;-25
2022/08/03 03:17:30;;;;;;;15.30;13.70;;;;;;;;;;105652;1303;25285;-25
2022/08/03 03:19:59;;;;;;;13.60;11.90;;;;;;;;;;105601;1296;25223;-29
2022/08/03 03:22:27;;;;;;;15.20;13.70;;;;;;;;;;105591;1303;22517;-29
2022/08/03 03:24:56;;;;;;;14.00;12.30;;;;;;;;;;105588;1303;22533;-29
2022/08/03 03:27:25;;;;;;;13.60;11.60;;;;;;;;;;105620;1303;24787;-25
2022/08/03 03:29:54;;;;;;;12.80;11.60;;;;;;;;;;105600;1302;25197;-29
2022/08/03 03:32:25;;;;;;;13.70;12.30;;;;;;;;;;105585;1303;22544;-29
2022/08/03 03:34:54;;;;;;;15.70;13.90;;;;;;;;;;105580;1302;22449;-24
2022/08/03 03:37:23;;;;;;;15.90;11.30;;;;;;;;;;105536;1303;22609;-28
2022/08/03 03:39:52;;;;;;;14.80;13.10;;;;;;;;;;105537;1302;25347;-30
2022/08/03 03:42:21;;;;;;;16.80;12.70;;;;;;;;;;105637;1303;25212;-25
2022/08/03 03:44:50;;;;;;;17.60;13.90;;;;;;;;;;105590;1303;22533;-29
2022/08/03 03:47:19;;;;;;;16.50;14.80;;;;;;;;;;105647;1303;22612;-29
2022/08/03 03:49:48;;;;;;;15.60;13.70;;;;;;;;;;105515;1302;25226;-24
2022/08/03 03:52:16;;;;;;;15.70;14.30;;;;;;;;;;105570;1301;25193;-24
2022/08/03 03:54:45;;;;;;;18.80;14.10;;;;;;;;;;105561;1296;25044;-28
2022/08/03 03:57:14;;;;;;;15.00;12.80;;;;;;;;;;105624;1303;25328;-26
2022/08/03 03:59:43;;;;;;;15.70;13.10;;;;;;;;;;105498;1302;24752;-24
2022/08/03 04:02:12;;;;;;;14.50;11.40;;;;;;;;;;105418;1303;25274;-28
2022/08/03 04:12:18;;;;;;;18.70;15.50;;;;;;;;;;105622;1299;22524;-25
2022/08/03 04:14:46;;;;;;;19.00;16.20;;;;;;;;;;105604;1302;24818;-29
2022/08/03 04:17:15;;;;;;;16.50;14.60;;;;;;;;;;105636;1303;25196;-28
2022/08/03 04:19:46;;;;;;;21.90;16.40;;;;;;;;;;105583;1302;26504;-29
2022/08/03 04:22:16;;;;;;;17.90;16.20;;;;;;;;;;105581;1302;22559;-24
2022/08/03 04:24:47;;;;;;;17.70;13.20;;;;;;;;;;105575;1303;24207;-30
2022/08/03 04:27:17;;;;;;;18.80;14.10;;;;;;;;;;105563;1299;22527;-26
2022/08/03 04:29:46;;;;;;;15.10;12.70;;;;;;;;;;105550;1303;22517;-24
2022/08/03 04:32:15;;;;;;;13.00;11.70;;;;;;;;;;105506;1303;22616;-25
2022/08/03 04:34:44;;;;;;;14.30;12.70;;;;;;;;;;105585;1302;25173;-28
2022/08/03 04:37:15;;;;;;;13.50;12.10;;;;;;;;;;105530;1303;24628;-24
2022/08/03 04:39:44;;;;;;;15.50;14.10;;;;;;;;;;105503;1296;25232;-26
2022/08/03 04:42:13;;;;;;;12.00;10.90;;;;;;;;;;105429;1304;25216;-26
2022/08/03 04:44:42;;;;;;;18.50;12.70;;;;;;;;;;105593;1302;25196;-28
2022/08/03 04:47:11;;;;;;;11.60;10.20;;;;;;;;;;105584;1303;25269;-27
2022/08/03 04:49:39;;;;;;;12.90;11.50;;;;;;;;;;105550;1296;25239;-28
2022/08/03 04:52:08;;;;;;;14.10;12.10;;;;;;;;;;105649;1303;22526;-30
2022/08/03 04:54:39;;;;;;;17.90;11.50;;;;;;;;;;105566;1303;24265;-28
2022/08/03 04:57:08;;;;;;;13.30;11.50;;;;;;;;;;105610;1302;24740;-30
2022/08/03 04:59:37;;;;;;;15.30;12.20;;;;;;;;;;105374;1304;22529;-25
2022/08/03 05:02:06;;;;;;;13.50;9.70;;;;;;;;;;105698;1303;22944;-30
2022/08/03 05:04:36;;;;;;;18.40;9.40;;;;;;;;;;105589;1303;25279;-31
2022/08/03 05:07:06;;;;;;;16.70;11.60;;;;;;;;;;105533;1302;22543;-27
2022/08/03 05:09:37;;;;;;;11.80;10.50;;;;;;;;;;105574;1303;22971;-26
2022/08/03 05:12:06;;;;;;;12.50;11.00;;;;;;;;;;105442;1302;22622;-30
2022/08/03 05:14:37;;;;;;;11.40;9.80;;;;;;;;;;105569;1303;25127;-30
2022/08/03 05:17:06;;;;;;;15.40;12.40;;;;;;;;;;105424;1299;22532;-27
2022/08/03 05:19:34;;;;;;;12.60;11.50;;;;;;;;;;105562;1303;22509;-29
2022/08/03 05:22:03;;;;;;;11.90;10.70;;;;;;;;;;105582;1303;22510;-28
2022/08/03 05:24:32;;;;;;;15.10;10.40;;;;;;;;;;105567;1300;24555;-29
2022/08/03 05:27:01;;;;;;;11.50;10.60;;;;;;;;;;105616;1296;24701;-25
2022/08/03 05:29:30;;;;;;;12.10;11.00;;;;;;;;;;105618;1299;22517;-29
2022/08/03 05:32:00;;;;;;;11.70;10.00;;;;;;;;;;105578;1303;24779;-25
2022/08/03 05:34:30;;;;;;;11.60;10.30;;;;;;;;;;105586;1299;22547;-29
2022/08/03 05:36:59;;;;;;;14.10;11.20;;;;;;;;;;105590;1296;25289;-25
2022/08/03 05:39:28;;;;;;;10.80;9.80;;;;;;;;;;105534;1303;25199;-30
2022/08/03 05:41:57;;;;;;;13.90;11.80;;;;;;;;;;105585;1303;22513;-29
2022/08/03 05:44:26;;;;;;;12.50;11.40;;;;;;;;;;105624;1299;22633;-25
2022/08/03 05:46:54;;;;;;;13.90;11.80;;;;;;;;;;105577;1303;25285;-28
2022/08/03 05:49:23;;;;;;;11.70;10.70;;;;;;;;;;105588;1296;22528;-25
2022/08/03 05:51:52;;;;;;;13.90;10.40;;;;;;;;;;105179;1297;469659;-25
2022/08/03 05:54:22;;;;;;;11.60;9.70;;;;;;;;;;105571;1303;25300;-25
2022/08/03 05:56:51;;;;;;;10.90;10.00;;;;;;;;;;105630;1303;25296;-30
2022/08/03 05:59:20;;;;;;;15.20;8.60;;;;;;;;;;105624;1302;25225;-24
2022/08/03 06:01:49;;;;;;;14.70;10.30;;;;;;;;;;105537;1299;25303;-28
2022/08/03 06:04:18;;;;;;;8.80;8.00;;;;;;;;;;105509;1296;22510;-30
2022/08/03 06:06:49;;;;;;;8.90;7.70;;;;;;;;;;105550;1303;25251;-30
2022/08/03 06:09:18;;;;;;;7.70;6.80;;;;;;;;;;105551;1295;25337;-26
2022/08/03 06:11:47;;;;;;;7.50;6.50;;;;;;;;;;105608;1303;25289;-30
2022/08/03 06:14:15;;;;;;;9.00;7.30;;;;;;;;;;105618;1296;24384;-26
2022/08/03 06:16:44;;;;;;;15.80;5.60;;;;;;;;;;105580;1303;25197;-30
2022/08/03 06:19:13;;;;;;;6.90;6.30;;;;;;;;;;105613;1296;22535;-29
2022/08/03 06:21:42;;;;;;;6.60;5.30;;;;;;;;;;105603;1303;25178;-29
2022/08/03 06:24:11;;;;;;;8.80;6.70;;;;;;;;;;105532;1299;22550;-25
2022/08/03 06:26:40;;;;;;;8.60;6.70;;;;;;;;;;105527;1303;25180;-25
2022/08/03 06:29:09;;;;;;;9.30;6.60;;;;;;;;;;105554;1296;25200;-27
2022/08/03 06:31:38;;;;;;;11.70;7.40;;;;;;;;;;105458;1302;22517;-31
2022/08/03 06:34:07;;;;;;;7.30;6.30;;;;;;;;;;105542;1296;25194;-28
2022/08/03 06:36:35;;;;;;;6.60;5.90;;;;;;;;;;105544;1303;25178;-30
2022/08/03 06:39:04;;;;;;;6.00;5.60;;;;;;;;;;105544;1296;22550;-29
2022/08/03 06:41:33;;;;;;;5.10;4.40;;;;;;;;;;105574;1303;25235;-27
2022/08/03 06:44:02;;;;;;;6.70;5.20;;;;;;;;;;105548;1295;22525;-29
2022/08/03 06:46:31;;;;;;;5.30;4.90;;;;;;;;;;105611;1303;22510;-29
2022/08/03 06:49:00;;;;;;;4.80;4.10;;;;;;;;;;105569;1296;22513;-26
2022/08/03 06:51:29;;;;;;;6.60;4.50;;;;;;;;;;105654;1303;24369;-25
2022/08/03 06:53:58;;;;;;;5.40;4.90;;;;;;;;;;105566;1297;25206;-25
2022/08/03 06:56:27;;;;;;;8.80;5.20;;;;;;;;;;105531;1303;25250;-28
2022/08/03 06:58:56;;;;;;;3.90;3.60;;;;;;;;;;105563;1303;25274;-24
2022/08/03 07:01:25;;;;;;;5.10;4.70;;;;;;;;;;105628;1304;25156;-29
2022/08/03 07:03:55;;;;;;;4.50;4.20;;;;;;;;;;105636;1303;25286;-29
2022/08/03 07:06:23;;;;;;;4.50;4.10;;;;;;;;;;105540;1289;25353;-31
2022/08/03 07:08:52;;;;;;;7.20;4.10;;;;;;;;;;105581;1296;25156;-29
2022/08/03 07:11:21;;;;;;;6.10;5.40;;;;;;;;;;105599;1303;25222;-25
2022/08/03 07:13:50;;;;;;;5.90;4.70;;;;;;;;;;104836;1299;1003189;-27
2022/08/03 07:16:19;;;;;;;5.90;5.40;;;;;;;;;;105588;1303;25229;-26
2022/08/03 07:18:48;;;;;;;6.60;5.20;;;;;;;;;;105607;1296;25196;-23
2022/08/03 07:21:16;;;;;;;5.90;4.40;;;;;;;;;;105537;1303;25197;-30
2022/08/03 07:23:45;;;;;;;8.70;4.80;;;;;;;;;;105660;1296;25054;-30
2022/08/03 07:26:14;;;;;;;5.10;4.50;;;;;;;;;;105619;1303;22514;-24
2022/08/03 07:28:43;;;;;;;4.80;4.00;;;;;;;;;;105558;1299;22522;-27
2022/08/03 07:31:12;;;;;;;5.10;4.10;;;;;;;;;;105627;1303;22519;-25
2022/08/03 07:33:40;;;;;;;6.40;4.00;;;;;;;;;;105537;1295;25238;-28
2022/08/03 07:36:18;;;;;;;3.50;3.20;;;;;;;;;;105582;1303;25229;-25
2022/08/03 07:38:56;;;;;;;5.30;4.80;;;;;;;;;;105575;1303;25226;-27
2022/08/03 07:41:34;;;;;;;5.30;3.30;;;;;;;;;;105561;1303;22589;-25
2022/08/03 07:44:11;;;;;;;6.30;3.00;;;;;;;;;;105560;1296;25335;-24
2022/08/03 07:46:40;;;;;;;11.50;3.70;;;;;;;;;;105558;1303;22533;-25
2022/08/03 07:49:09;;;;;;;3.50;3.20;;;;;;;;;;104786;1295;1002977;-29
2022/08/03 07:51:39;;;;;;;4.20;3.80;;;;;;;;;;105578;1303;25228;-27
2022/08/03 07:54:08;;;;;;;4.10;3.60;;;;;;;;;;105656;1296;22613;-24
2022/08/03 07:56:37;;;;;;;3.50;3.10;;;;;;;;;;105489;1298;22509;-28
2022/08/03 07:59:07;;;;;;;6.40;2.90;;;;;;;;;;105631;1296;22514;-30
2022/08/03 08:01:36;;;;;;;4.50;3.00;;;;;;;;;;105562;1303;25240;-24
2022/08/03 08:04:06;;;;;;;3.70;3.40;;;;;;;;;;105608;1296;25225;-29
2022/08/03 08:06:34;;;;;;;5.30;3.50;;;;;;;;;;105608;1303;22557;-25
2022/08/03 08:09:03;;;;;;;4.10;3.70;;;;;;;;;;105579;1296;25241;-24
2022/08/03 08:11:32;;;;;;;4.10;3.80;;;;;;;;;;105525;1303;25301;-29
2022/08/03 08:14:01;;;;;;;4.50;3.30;;;;;;;;;;105535;1296;22528;-29
2022/08/03 08:16:30;;;;;;;11.10;3.60;;;;;;;;;;105549;1303;22523;-25
2022/08/03 08:19:00;;;;;;;4.40;3.40;;;;;;;;;;105576;1295;22530;-29
2022/08/03 08:21:29;;;;;;;5.10;3.40;;;;;;;;;;105530;1296;22493;-26
2022/08/03 08:23:58;;;;;;;3.40;3.10;;;;;;;;;;105621;1295;25103;-26
2022/08/03 08:26:36;;;;;;;4.80;2.80;;;;;;;;;;105552;1304;25334;-26
2022/08/03 08:29:13;;;;;;;6.50;3.50;;;;;;;;;;105533;1303;25360;-30
2022/08/03 08:31:42;;;;;;;6.20;3.50;;;;;;;;;;105562;1303;22613;-27
2022/08/03 08:34:11;;;;;;;2.90;2.70;;;;;;;;;;105556;1295;25353;-24
2022/08/03 08:36:40;;;;;;;7.20;3.00;;;;;;;;;;105601;1302;25338;-30
2022/08/03 08:39:08;;;;;;;3.90;3.00;;;;;;;;;;105633;1303;25216;-25
2022/08/03 08:41:37;;;;;;;4.30;3.40;;;;;;;;;;105535;1303;25197;-25
2022/08/03 08:44:07;;;;;;;8.50;2.70;;;;;;;;;;105559;1296;25519;-25
2022/08/03 08:46:35;;;;;;;6.00;3.10;;;;;;;;;;105566;1303;25266;-31
2022/08/03 08:49:05;;;;;;;3.30;3.00;;;;;;;;;;105587;1296;22506;-28
2022/08/03 08:51:36;;;;;;;3.30;2.80;;;;;;;;;;105428;1304;25279;-25
2022/08/03 08:54:06;;;;;;;10.70;3.10;;;;;;;;;;105384;1299;25225;-31
2022/08/03 08:56:35;;;;;;;3.40;3.00;;;;;;;;;;105397;1299;25235;-25
2022/08/03 08:59:04;;;;;;;3.30;3.00;;;;;;;;;;105468;1299;25385;-29
2022/08/03 09:01:33;;;;;;;3.10;2.80;;;;;;;;;;105470;1286;25206;-25
2022/08/03 09:04:04;;;;;;;3.10;2.80;;;;;;;;;;105441;1299;22500;-25
2022/08/03 09:06:33;;;;;;;5.10;2.40;;;;;;;;;;105609;1298;25260;-25
2022/08/03 09:09:02;;;;;;;7.70;2.20;;;;;;;;;;105497;1299;22516;-28
2022/08/03 09:11:31;;;;;;;2.40;1.90;;;;;;;;;;105409;1303;22535;-28
2022/08/03 09:14:00;;;;;;;3.50;1.50;;;;;;;;;;105622;1296;25244;-28
2022/08/03 09:16:29;;;;;;;2.20;2.00;;;;;;;;;;105566;1303;25223;-24
2022/08/03 09:19:00;;;;;;;2.00;1.80;;;;;;;;;;105549;1303;24987;-25
2022/08/03 09:21:29;;;;;;;6.00;3.10;;;;;;;;;;105434;1298;25209;-28
2022/08/03 09:23:58;;;;;;;3.00;2.50;;;;;;;;;;105560;1296;22523;-28
2022/08/03 09:26:28;;;;;;;2.50;2.20;;;;;;;;;;105549;1303;25197;-28
2022/08/03 09:28:59;;;;;;;2.70;2.40;;;;;;;;;;105581;1303;25124;-26
2022/08/03 09:31:28;;;;;;;1.90;1.80;;;;;;;;;;105590;1296;25136;-26
2022/08/03 09:34:00;;;;;;;5.50;1.90;;;;;;;;;;105598;1303;25221;-25
2022/08/03 09:36:33;;;;;;;1.80;1.50;;;;;;;;;;105609;1296;25260;-30
2022/08/03 09:39:05;;;;;;;19.60;1.20;;;;;;;;;;105556;1299;25261;-26
2022/08/03 09:41:34;;;;;;;2.10;1.80;;;;;;;;;;105633;1303;25177;-24
2022/08/03 09:44:02;;;;;;;3.60;1.90;;;;;;;;;;105527;1296;22527;-28
2022/08/03 09:46:32;;;;;;;3.40;1.80;;;;;;;;;;105534;1296;22442;-28
2022/08/03 09:49:04;;;;;;;3.00;1.40;;;;;;;;;;105436;1303;22538;-24
2022/08/03 09:51:33;;;;;;;2.10;1.60;;;;;;;;;;105599;1296;25039;-27
2022/08/03 09:54:03;;;;;;;1.60;1.20;;;;;;;;;;105655;1296;22520;-24
2022/08/03 09:56:35;;;;;;;2.60;1.50;;;;;;;;;;105515;1296;22521;-28
2022/08/03 09:59:13;;;;;;;2.70;1.60;;;;;;;;;;105565;1296;24769;-24
2022/08/03 10:01:50;;;;;;;1.90;1.70;;;;;;;;;;105626;1299;22611;-25
2022/08/03 10:04:19;;;;;;;1.60;1.50;;;;;;;;;;105502;1296;25236;-25
2022/08/03 10:06:52;;;;;;;1.40;1.30;;;;;;;;;;105379;1304;25269;-29
2022/08/03 10:09:20;;;;;;;2.30;1.70;;;;;;;;;;105557;1296;25194;-23
2022/08/03 10:11:49;;;;;;;2.00;1.40;;;;;;;;;;105589;1303;25196;-28
2022/08/03 10:14:18;;;;;;;1.40;1.20;;;;;;;;;;105545;1303;25008;-24
2022/08/03 10:16:47;;;;;;;1.80;1.50;;;;;;;;;;105648;1303;22506;-27
2022/08/03 10:19:16;;;;;;;1.40;1.30;;;;;;;;;;105652;1303;25200;-24
2022/08/03 10:21:46;;;;;;;1.50;1.10;;;;;;;;;;105500;1296;25225;-25
2022/08/03 10:24:15;;;;;;;2.20;1.40;;;;;;;;;;105568;1299;22529;-28
2022/08/03 10:26:44;;;;;;;1.50;1.50;;;;;;;;;;105643;1296;25196;-28
2022/08/03 10:29:17;;;;;;;2.60;1.80;;;;;;;;;;105655;1296;25660;-24
2022/08/03 10:31:45;;;;;;;3.50;1.50;;;;;;;;;;105607;1296;25236;-28
2022/08/03 10:34:16;;;;;;;2.30;1.50;;;;;;;;;;105547;1303;25209;-28
2022/08/03 10:36:45;;;;;;;5.10;1.60;;;;;;;;;;105618;1298;25197;-24
2022/08/03 10:39:14;;;;;;;2.60;1.30;;;;;;;;;;105579;1296;25186;-29
2022/08/03 10:41:45;;;;;;;1.90;1.80;;;;;;;;;;105606;1303;25302;-29
2022/08/03 10:44:16;;;;;;;1.90;1.70;;;;;;;;;;105583;1303;25213;-25
2022/08/03 10:46:53;;;;;;;2.40;1.90;;;;;;;;;;105541;1303;22529;-25
2022/08/03 10:49:31;;;;;;;2.10;1.90;;;;;;;;;;105565;1296;25280;-29
2022/08/03 10:52:08;;;;;;;2.10;1.80;;;;;;;;;;105665;1303;22523;-29
2022/08/03 10:57:33;;;;;;;1.30;1.20;;;;;;;;;;105532;1295;25347;-29
2022/08/03 10:57:35;;;;;;;1.60;1.40;;;;;;;;;;105527;1296;22538;-29
2022/08/03 11:00:05;;;;;;;2.40;1.60;;;;;;;;;;105515;1303;25260;-29
2022/08/03 11:02:37;;;;;;;3.10;1.90;;;;;;;;;;105590;1288;25254;-29
2022/08/03 11:05:10;;;;;;;6.90;1.20;;;;;;;;;;105595;1296;22522;-29
2022/08/03 11:07:38;;;;;;;3.10;1.90;;;;;;;;;;105588;1296;22493;-25
2022/08/03 11:10:07;;;;;;;2.00;1.50;;;;;;;;;;105495;1296;25174;-25
2022/08/03 11:12:36;;;;;;;2.60;1.00;;;;;;;;;;105536;1293;22558;-29
2022/08/03 11:15:06;;;;;;;1.90;1.70;;;;;;;;;;105616;1296;22517;-29
2022/08/03 11:17:35;;;;;;;1.80;1.40;;;;;;;;;;105577;1303;25357;-25
2022/08/03 11:20:05;;;;;;;2.40;1.40;;;;;;;;;;105571;1299;25220;-29
2022/08/03 11:22:37;;;;;;;1.60;1.40;;;;;;;;;;105617;1303;25266;-24
2022/08/03 11:25:06;;;;;;;3.20;1.70;;;;;;;;;;105400;1299;25178;-28
2022/08/03 11:27:36;;;;;;;1.70;1.00;;;;;;;;;;105504;1298;22455;-24
2022/08/03 11:30:07;;;;;;;2.00;1.40;;;;;;;;;;105503;1296;22524;-28
2022/08/03 11:32:36;;;;;;;4.70;1.30;;;;;;;;;;105595;1298;22625;-24
2022/08/03 11:35:06;;;;;;;1.50;1.20;;;;;;;;;;105563;1285;22517;-24
2022/08/03 11:37:46;;;;;;;1.40;1.20;;;;;;;;;;105565;1303;25226;-24
2022/08/03 11:40:27;;;;;;;2.40;1.40;;;;;;;;;;105572;1303;22566;-24
2022/08/03 11:42:56;;;;;;;1.40;1.30;;;;;;;;;;105613;1296;22528;-24
2022/08/03 11:45:25;;;;;;;2.80;1.70;;;;;;;;;;105617;1303;25323;-29
2022/08/03 11:47:54;;;;;;;2.90;1.20;;;;;;;;;;105637;1303;22513;-25
2022/08/03 11:50:23;;;;;;;1.50;1.40;;;;;;;;;;105546;1299;25238;-24
2022/08/03 11:52:52;;;;;;;2.50;2.20;;;;;;;;;;105649;1303;22509;-29
2022/08/03 11:55:21;;;;;;;1.70;1.20;;;;;;;;;;105528;1303;25231;-25
2022/08/03 11:57:50;;;;;;;4.70;1.10;;;;;;;;;;105620;1296;22527;-24
2022/08/03 12:00:20;;;;;;;1.20;0.80;;;;;;;;;;105600;1303;22518;-28
2022/08/03 12:02:52;;;;;;;2.10;1.50;;;;;;;;;;105558;1303;24993;-24
2022/08/03 12:05:31;;;;;;;1.80;1.50;;;;;;;;;;105625;1295;22507;-29
2022/08/03 12:08:00;;;;;;;3.90;1.50;;;;;;;;;;105511;1298;22520;-29
2022/08/03 12:10:29;;;;;;;1.80;1.70;;;;;;;;;;105616;1303;24260;-29
2022/08/03 12:12:58;;;;;;;1.40;1.20;;;;;;;;;;105581;1296;22524;-25
2022/08/03 12:15:27;;;;;;;5.90;1.50;;;;;;;;;;105633;1303;22545;-29
2022/08/03 12:17:56;;;;;;;1.60;1.50;;;;;;;;;;105562;1303;22691;-29
2022/08/03 12:20:26;;;;;;;13.80;1.70;;;;;;;;;;105482;1303;24762;-24
2022/08/03 12:22:57;;;;;;;3.00;0.90;;;;;;;;;;105596;1303;25082;-28
2022/08/03 12:25:26;;;;;;;1.70;1.40;;;;;;;;;;105660;1303;24256;-25
2022/08/03 12:28:05;;;;;;;2.70;1.30;;;;;;;;;;105609;1285;25263;-29
2022/08/03 12:30:34;;;;;;;1.50;1.20;;;;;;;;;;105562;1303;25248;-24
2022/08/03 12:33:06;;;;;;;1.80;1.60;;;;;;;;;;105556;1303;22519;-29
2022/08/03 12:35:35;;;;;;;1.60;1.20;;;;;;;;;;105686;1296;24473;-28
2022/08/03 12:38:04;;;;;;;2.10;1.50;;;;;;;;;;105592;1283;25303;-25
2022/08/03 12:40:32;;;;;;;1.50;1.20;;;;;;;;;;105598;1292;25258;-29
2022/08/03 12:43:09;;;;;;;5.30;1.40;;;;;;;;;;105541;1295;22510;-25
2022/08/03 12:45:38;;;;;;;2.40;1.50;;;;;;;;;;105607;1303;25241;-24
2022/08/03 12:48:08;;;;;;;1.30;1.20;;;;;;;;;;105491;1299;22513;-25
2022/08/03 12:50:38;;;;;;;2.30;1.40;;;;;;;;;;105560;1303;22531;-29
2022/08/03 12:53:07;;;;;;;1.50;1.00;;;;;;;;;;105499;1296;25120;-25
2022/08/03 12:55:37;;;;;;;2.50;1.10;;;;;;;;;;105526;1296;25266;-25
2022/08/03 12:58:06;;;;;;;1.20;1.00;;;;;;;;;;105608;1296;25235;-28
2022/08/03 13:00:35;;;;;;;1.60;1.50;;;;;;;;;;105516;1303;25235;-25
2022/08/03 13:03:06;;;;;;;1.70;1.30;;;;;;;;;;105594;1289;22510;-25
2022/08/03 13:05:38;;;;;;;1.40;1.30;;;;;;;;;;105617;1296;25302;-25
2022/08/03 13:08:16;;;;;;;4.10;1.60;;;;;;;;;;105600;1295;24635;-28
2022/08/03 13:10:45;;;;;;;2.50;1.30;;;;;;;;;;105504;1303;22516;-25
2022/08/03 13:13:40;;;;;;;1.50;1.30;;;;;;;;;;105545;1302;24424;-28
2022/08/03 13:16:17;;;;;;;2.30;1.50;;;;;;;;;;105548;1303;25337;-24
2022/08/03 13:18:55;;;;;;;1.20;1.10;;;;;;;;;;105562;1303;25222;-24
2022/08/03 13:21:32;;;;;;;1.40;1.10;;;;;;;;;;105550;1303;25306;-24
2022/08/03 13:24:01;;;;;;;1.70;1.30;;;;;;;;;;105570;1296;24790;-25
2022/08/03 13:26:30;;;;;;;1.40;1.10;;;;;;;;;;105570;1303;25200;-24
2022/08/03 13:28:58;;;;;;;1.10;1.00;;;;;;;;;;105542;1299;25346;-24
2022/08/03 13:31:27;;;;;;;16.00;1.70;;;;;;;;;;105556;1303;25359;-25
2022/08/03 13:34:05;;;;;;;0.70;0.60;;;;;;;;;;105542;1303;24840;-25
2022/08/03 13:36:34;;;;;;;1.00;1.00;;;;;;;;;;105583;1286;25197;-29
2022/08/03 13:39:02;;;;;;;1.90;1.70;;;;;;;;;;105639;1283;25247;-28
2022/08/03 13:41:31;;;;;;;2.80;0.80;;;;;;;;;;105564;1296;22521;-29
2022/08/03 13:44:00;;;;;;;2.60;1.50;;;;;;;;;;105610;1296;22500;-29
2022/08/03 13:46:29;;;;;;;1.20;1.10;;;;;;;;;;105525;1303;25188;-31
2022/08/03 13:48:58;;;;;;;2.80;1.70;;;;;;;;;;105543;1303;22532;-25
2022/08/03 13:51:26;;;;;;;1.10;1.00;;;;;;;;;;105346;1303;255142;-25
2022/08/03 13:53:58;;;;;;;1.20;1.00;;;;;;;;;;105631;1296;22497;-25
2022/08/03 13:56:27;;;;;;;1.40;1.30;;;;;;;;;;105652;1296;25172;-25
2022/08/03 13:58:57;;;;;;;1.10;1.00;;;;;;;;;;105514;1303;22513;-29
2022/08/03 14:01:26;;;;;;;2.30;0.90;;;;;;;;;;105538;1303;24791;-26
2022/08/03 14:03:57;;;;;;;1.00;0.90;;;;;;;;;;105581;1293;22510;-25
2022/08/03 14:06:25;;;;;;;1.10;0.80;;;;;;;;;;105550;1296;25337;-29
2022/08/03 14:08:55;;;;;;;2.30;1.40;;;;;;;;;;105612;1296;25361;-29
2022/08/03 14:11:24;;;;;;;1.70;1.00;;;;;;;;;;105534;1303;25306;-28
2022/08/03 14:13:53;;;;;;;0.90;0.80;;;;;;;;;;105562;1299;22603;-29
2022/08/03 14:16:22;;;;;;;1.30;1.20;;;;;;;;;;105551;1303;22539;-29
2022/08/03 14:18:51;;;;;;;1.30;1.20;;;;;;;;;;105347;1299;25234;-29
2022/08/03 14:21:19;;;;;;;1.40;0.80;;;;;;;;;;105555;1303;22517;-24
2022/08/03 14:23:48;;;;;;;1.20;0.90;;;;;;;;;;105654;1296;22517;-25
2022/08/03 14:26:19;;;;;;;0.90;0.80;;;;;;;;;;105583;1303;22622;-29
2022/08/03 14:28:47;;;;;;;2.30;1.10;;;;;;;;;;105413;1298;25200;-25
2022/08/03 14:31:16;;;;;;;6.40;1.20;;;;;;;;;;105603;1283;22529;-25
2022/08/03 14:33:45;;;;;;;2.50;1.10;;;;;;;;;;105601;1303;25237;-25
2022/08/03 14:36:14;;;;;;;1.40;1.10;;;;;;;;;;105617;1304;22447;-25
2022/08/03 14:38:43;;;;;;;3.10;1.70;;;;;;;;;;105615;1289;24619;-29
2022/08/03 14:41:12;;;;;;;1.00;1.00;;;;;;;;;;105572;1295;25238;-25
2022/08/03 14:43:40;;;;;;;1.90;1.20;;;;;;;;;;105601;1296;24829;-25